Time;durP1;ratioP1;P1;durP2;ratioP2;P2;SDS_P1;SDS_P2;PMS_P1;PMS_P2;Temp;Humidity;BMP_temperature;BMP_pressure;BME280_temperature;BME280_humidity;BME280_pressure;Samples;Min_cycle;Max_cycle;Signal;HPM_P1;HPM_P2
2021/01/22 00:00:18;;;;;;;1.00;0.40;;;;;;;9.75;74.08;96948.06;2010906;78;22635;-76
2021/01/22 00:03:20;;;;;;;0.81;0.34;;;;;;;9.76;73.62;96948.00;2010691;80;20339;-75
2021/01/22 00:06:22;;;;;;;0.60;0.60;;;;;;;9.76;73.09;96944.56;2011358;80;20449;-76
2021/01/22 00:09:24;;;;;;;0.82;0.40;;;;;;;9.75;72.79;96948.06;2011022;80;20291;-77
2021/01/22 00:12:25;;;;;;;0.91;0.60;;;;;;;9.76;72.82;96941.97;2011118;80;20318;-76
2021/01/22 00:15:27;;;;;;;0.70;0.50;;;;;;;9.74;72.75;96949.81;2010224;78;27087;-75
2021/01/22 00:18:29;;;;;;;1.46;0.43;;;;;;;9.74;72.44;96941.19;2011488;80;20860;-76
2021/01/22 00:21:31;;;;;;;0.96;0.40;;;;;;;9.74;72.73;96942.03;2012114;80;20754;-75
2021/01/22 00:24:32;;;;;;;1.15;0.43;;;;;;;9.75;72.39;96935.09;2011245;80;20358;-75
2021/01/22 00:27:35;;;;;;;3.10;0.45;;;;;;;9.74;72.74;96936.84;2011361;80;20197;-75
2021/01/22 00:30:37;;;;;;;0.63;0.40;;;;;;;9.73;72.52;96931.72;2010609;80;20681;-75
2021/01/22 00:33:38;;;;;;;0.59;0.40;;;;;;;9.73;72.33;96926.56;2060500;70;20759;-77
2021/01/22 00:36:40;;;;;;;1.01;0.30;;;;;;;9.74;72.19;96925.66;2017745;80;20183;-79
2021/01/22 00:39:42;;;;;;;1.50;0.40;;;;;;;9.73;72.48;96926.56;2017470;80;20197;-77
2021/01/22 00:42:43;;;;;;;0.95;0.31;;;;;;;9.74;71.91;96934.25;2017410;80;20333;-77
2021/01/22 00:45:45;;;;;;;0.71;0.41;;;;;;;9.77;71.90;96938.47;2011012;79;21988;-77
2021/01/22 00:48:47;;;;;;;2.19;0.26;;;;;;;9.73;73.02;96926.56;2012716;80;20214;-77
2021/01/22 00:51:48;;;;;;;1.31;0.40;;;;;;;9.69;72.82;96925.81;2011793;80;20210;-77
2021/01/22 00:54:50;;;;;;;1.66;0.63;;;;;;;9.68;72.60;96912.00;2011538;80;20319;-77
2021/01/22 00:57:52;;;;;;;1.81;0.81;;;;;;;9.62;72.97;96935.59;2012117;80;20341;-77
2021/01/22 01:00:53;;;;;;;2.19;0.40;;;;;;;9.63;72.56;96920.88;2011580;78;21180;-78
2021/01/22 01:03:55;;;;;;;2.26;0.70;;;;;;;9.62;72.75;96922.63;2012104;80;20200;-77
2021/01/22 01:06:56;;;;;;;1.26;0.50;;;;;;;9.61;72.93;96913.19;2012315;80;20190;-77
2021/01/22 01:09:58;;;;;;;0.64;0.30;;;;;;;9.62;72.73;96921.78;2011901;80;20314;-77
2021/01/22 01:13:02;;;;;;;0.40;0.30;;;;;;;9.66;73.01;96926.78;2012007;80;20349;-78
2021/01/22 01:16:04;;;;;;;1.16;0.40;;;;;;;9.63;73.52;96924.31;2011159;80;21125;-77
2021/01/22 01:19:06;;;;;;;1.33;0.40;;;;;;;9.63;73.78;96920.88;2012521;80;20172;-77
2021/01/22 01:22:08;;;;;;;0.68;0.31;;;;;;;9.62;74.04;96927.81;2011642;80;20169;-77
2021/01/22 01:25:10;;;;;;;0.41;0.40;;;;;;;9.60;74.26;96916.69;2012314;80;20329;-78
2021/01/22 01:28:12;;;;;;;2.80;0.50;;;;;;;9.56;74.57;96922.88;2011891;80;20345;-77
2021/01/22 01:31:14;;;;;;;1.77;0.60;;;;;;;9.55;74.68;96913.44;2011164;77;20686;-77
2021/01/22 01:34:15;;;;;;;1.30;0.49;;;;;;;9.50;75.29;96917.09;2012144;80;20630;-78
2021/01/22 01:37:17;;;;;;;1.13;0.51;;;;;;;9.43;76.09;96921.69;2012061;80;20865;-77
2021/01/22 01:40:19;;;;;;;0.96;0.39;;;;;;;9.38;76.98;96927.06;2012533;80;20339;-77
2021/01/22 01:43:20;;;;;;;1.67;0.60;;;;;;;9.30;77.86;96938.59;2012357;80;20342;-77
2021/01/22 01:46:22;;;;;;;2.51;0.40;;;;;;;9.20;78.25;96924.34;2011014;78;20834;-77
2021/01/22 01:49:24;;;;;;;1.56;0.57;;;;;;;9.15;78.66;96924.50;2012012;80;20310;-78
2021/01/22 01:52:25;;;;;;;2.21;0.90;;;;;;;9.09;78.91;96922.16;2011207;80;20328;-78
2021/01/22 01:55:27;;;;;;;2.39;0.54;;;;;;;9.07;78.76;96929.97;2011650;80;21303;-77
2021/01/22 01:58:29;;;;;;;1.80;0.45;;;;;;;9.06;78.65;96932.63;2012773;80;20330;-78
2021/01/22 02:01:34;;;;;;;5.15;0.51;;;;;;;9.08;77.64;96929.06;2010822;78;20403;-76
2021/01/22 02:04:36;;;;;;;3.81;0.60;;;;;;;9.09;77.68;96922.16;2011828;80;21318;-78
2021/01/22 02:07:38;;;;;;;2.01;0.52;;;;;;;9.11;77.37;96924.66;2011751;80;20314;-78
2021/01/22 02:10:39;;;;;;;4.13;1.31;;;;;;;9.09;76.59;96914.38;2012136;80;20339;-79
2021/01/22 02:13:43;;;;;;;3.40;0.76;;;;;;;9.17;75.60;96917.53;2011577;80;20337;-78
2021/01/22 02:16:45;;;;;;;2.84;0.70;;;;;;;9.20;75.41;96914.81;2011651;78;26802;-79
2021/01/22 02:20:08;;;;;;;1.74;0.71;;;;;;;9.20;75.23;96919.16;2012694;80;20328;-79
2021/01/22 02:23:13;;;;;;;4.64;0.70;;;;;;;9.23;74.85;96912.09;2015039;80;20318;-78
2021/01/22 02:26:30;;;;;;;2.69;0.60;;;;;;;9.25;74.77;96905.13;2012784;80;20322;-78
2021/01/22 02:29:33;;;;;;;2.79;0.45;;;;;;;9.30;73.90;96910.09;2011868;80;21172;-78
2021/01/22 02:32:36;;;;;;;3.76;0.66;;;;;;;9.34;73.90;96922.06;2011203;80;21249;-78
2021/01/22 02:35:39;;;;;;;2.69;0.80;;;;;;;9.35;73.84;96919.41;2011842;80;20433;-77
2021/01/22 02:38:44;;;;;;;2.24;0.51;;;;;;;9.35;73.89;96914.22;2013013;80;20450;-79
2021/01/22 02:41:47;;;;;;;4.38;0.50;;;;;;;9.37;73.91;96911.56;2011756;80;20799;-77
2021/01/22 02:44:53;;;;;;;3.26;0.80;;;;;;;9.36;73.61;96915.91;2012816;80;20326;-79
2021/01/22 02:47:56;;;;;;;2.63;0.86;;;;;;;9.38;73.60;96927.06;2010791;77;24502;-78
2021/01/22 02:50:57;;;;;;;5.18;0.75;;;;;;;9.37;73.70;96921.94;2012050;80;20336;-78
2021/01/22 02:53:59;;;;;;;4.03;0.79;;;;;;;9.38;73.47;96931.38;2011459;80;20318;-77
2021/01/22 02:57:19;;;;;;;3.55;1.04;;;;;;;9.38;73.38;96915.84;2010817;80;20334;-77
2021/01/22 03:00:25;;;;;;;2.61;0.70;;;;;;;9.40;73.57;96906.28;2011439;78;21854;-78
2021/01/22 03:03:26;;;;;;;3.97;0.80;;;;;;;9.42;73.54;96922.59;2013646;80;20299;-77
2021/01/22 03:06:33;;;;;;;3.46;1.17;;;;;;;9.39;73.48;96928.75;2013094;80;20932;-77
2021/01/22 03:09:39;;;;;;;4.26;0.74;;;;;;;9.39;73.85;96927.91;2013696;80;20457;-77
2021/01/22 03:12:43;;;;;;;2.59;1.24;;;;;;;9.38;74.14;96919.28;2017457;80;20351;-78
2021/01/22 03:15:46;;;;;;;4.04;0.70;;;;;;;9.36;74.59;96928.03;2012386;78;20689;-78
2021/01/22 03:18:59;;;;;;;4.35;0.86;;;;;;;9.33;74.99;96916.00;2013420;80;20766;-77
2021/01/22 03:22:02;;;;;;;2.29;0.52;;;;;;;9.31;75.55;96916.97;2012593;80;20523;-77
2021/01/22 03:25:04;;;;;;;2.47;0.64;;;;;;;9.26;75.99;96924.09;2013006;80;20330;-79
2021/01/22 03:28:06;;;;;;;5.72;0.64;;;;;;;9.20;76.29;96909.66;2012985;80;20391;-77
2021/01/22 03:31:07;;;;;;;5.63;0.81;;;;;;;9.17;76.64;96912.34;2012984;78;20338;-77
2021/01/22 03:34:09;;;;;;;3.28;0.68;;;;;;;9.14;76.96;96914.19;2013661;80;20803;-77
2021/01/22 03:37:10;;;;;;;3.01;0.75;;;;;;;9.13;77.13;96913.34;2013518;80;21169;-78
2021/01/22 03:40:15;;;;;;;6.49;0.90;;;;;;;9.09;77.63;96909.19;2013709;80;20472;-77
2021/01/22 03:43:16;;;;;;;3.25;0.80;;;;;;;9.02;78.13;96918.97;2012569;80;20399;-78
2021/01/22 03:46:18;;;;;;;4.25;0.94;;;;;;;8.99;78.30;96913.91;2012889;78;22025;-77
2021/01/22 03:49:20;;;;;;;5.53;1.59;;;;;;;8.96;78.71;96916.59;2012776;80;20822;-78
2021/01/22 03:52:22;;;;;;;4.69;0.93;;;;;;;8.91;79.22;96908.16;2014065;80;20345;-77
2021/01/22 03:55:24;;;;;;;4.26;0.73;;;;;;;8.87;79.53;96901.41;2012984;80;20342;-78
2021/01/22 03:58:26;;;;;;;3.28;0.66;;;;;;;8.84;79.67;96896.38;2014251;80;20659;-78
2021/01/22 04:01:29;;;;;;;2.60;0.50;;;;;;;8.82;79.80;96902.50;2013108;78;20334;-78
2021/01/22 04:04:30;;;;;;;4.68;0.77;;;;;;;8.79;79.97;96901.69;2012071;80;20348;-78
2021/01/22 04:07:34;;;;;;;4.19;0.74;;;;;;;8.75;80.16;96897.53;2013130;80;20532;-78
2021/01/22 04:10:36;;;;;;;1.85;0.63;;;;;;;8.75;80.24;96897.53;2012976;80;20857;-77
2021/01/22 04:13:38;;;;;;;2.92;0.61;;;;;;;8.73;80.21;96896.75;2012379;80;20407;-78
2021/01/22 04:16:40;;;;;;;3.13;0.56;;;;;;;8.73;80.01;96898.50;2011909;77;22113;-78
2021/01/22 04:19:44;;;;;;;4.15;0.59;;;;;;;8.72;79.73;96886.47;2013150;80;20341;-78
2021/01/22 04:22:47;;;;;;;2.15;0.54;;;;;;;8.73;79.42;96885.56;2012934;80;20332;-79
2021/01/22 04:25:49;;;;;;;1.51;0.60;;;;;;;8.74;79.49;96885.50;2012233;80;20754;-78
2021/01/22 04:28:56;;;;;;;3.03;0.71;;;;;;;8.74;79.49;96876.91;2012920;80;20332;-77
2021/01/22 04:31:57;;;;;;;3.00;0.70;;;;;;;8.73;79.25;96872.63;2011174;78;21968;-77
2021/01/22 04:34:59;;;;;;;2.44;0.80;;;;;;;8.74;79.37;96875.16;2012702;80;20329;-78
2021/01/22 04:38:01;;;;;;;3.34;0.80;;;;;;;8.73;79.59;96875.22;2012217;80;20340;-77
2021/01/22 04:41:03;;;;;;;1.50;0.46;;;;;;;8.71;79.88;96874.44;2012068;80;20375;-78
2021/01/22 04:44:05;;;;;;;2.60;0.49;;;;;;;8.71;79.93;96875.28;2012458;80;20347;-77
2021/01/22 04:47:08;;;;;;;2.67;0.46;;;;;;;8.70;80.12;96867.56;2012087;78;20700;-77
2021/01/22 04:50:15;;;;;;;0.82;0.31;;;;;;;8.66;80.18;96858.25;2012647;80;20330;-77
2021/01/22 04:53:23;;;;;;;2.26;0.52;;;;;;;8.64;80.13;96854.88;2012259;80;20310;-76
2021/01/22 04:56:25;;;;;;;1.98;0.30;;;;;;;8.65;79.96;96859.16;2012150;80;20314;-77
2021/01/22 04:59:31;;;;;;;2.13;0.39;;;;;;;8.65;79.64;96867.75;2012702;80;21157;-77
2021/01/22 05:02:33;;;;;;;1.29;0.31;;;;;;;8.65;79.86;96856.56;2011197;78;23030;-77
2021/01/22 05:05:35;;;;;;;1.66;0.45;;;;;;;8.66;79.85;96860.84;2012109;80;20364;-78
2021/01/22 05:08:37;;;;;;;1.64;0.36;;;;;;;8.64;80.08;96854.88;2012710;80;20952;-77
2021/01/22 05:11:39;;;;;;;2.80;0.46;;;;;;;8.64;79.99;96847.13;2013186;80;20303;-77
2021/01/22 05:14:41;;;;;;;2.51;0.36;;;;;;;8.63;79.98;96854.03;2012071;80;20318;-77
2021/01/22 05:17:54;;;;;;;1.10;0.40;;;;;;;8.64;80.00;96849.69;2010654;78;21952;-78
2021/01/22 05:20:55;;;;;;;3.69;1.02;;;;;;;8.64;79.95;96841.94;2012397;80;20351;-77
2021/01/22 05:23:58;;;;;;;1.54;0.35;;;;;;;8.64;80.05;96836.78;2012233;80;20344;-77
2021/01/22 05:27:01;;;;;;;3.49;0.40;;;;;;;8.62;80.23;96847.19;2012577;80;20338;-78
2021/01/22 05:30:04;;;;;;;0.73;0.34;;;;;;;8.62;80.25;96847.19;2012267;80;20349;-77
2021/01/22 05:33:16;;;;;;;3.15;0.41;;;;;;;8.59;80.34;96831.75;2009686;78;21757;-76
2021/01/22 05:36:25;;;;;;;1.30;0.36;;;;;;;8.63;79.86;96842.84;2004554;80;20348;-76
2021/01/22 05:39:27;;;;;;;2.56;0.40;;;;;;;8.64;79.78;96835.03;2004943;80;20385;-77
2021/01/22 05:42:45;;;;;;;1.44;0.40;;;;;;;8.67;79.43;96836.66;2004677;80;20300;-77
2021/01/22 05:45:47;;;;;;;1.31;0.40;;;;;;;8.68;79.14;96843.50;2006218;80;21139;-77
2021/01/22 05:49:06;;;;;;;3.60;0.51;;;;;;;8.75;78.62;96844.94;2004295;80;20331;-76
2021/01/22 05:52:19;;;;;;;1.26;0.30;;;;;;;8.76;78.89;96838.88;2004417;80;20544;-78
2021/01/22 05:55:23;;;;;;;1.65;0.50;;;;;;;8.72;79.62;96829.56;2005078;80;20347;-78
2021/01/22 05:58:28;;;;;;;2.20;0.51;;;;;;;8.68;80.16;96838.34;2004410;80;20331;-78
2021/01/22 06:01:30;;;;;;;1.89;0.50;;;;;;;8.67;80.00;96829.72;2002355;78;23717;-77
2021/01/22 06:04:31;;;;;;;0.61;0.25;;;;;;;8.65;80.35;96828.94;2004238;80;20319;-77
2021/01/22 06:07:35;;;;;;;1.88;0.40;;;;;;;8.65;80.00;96839.31;2005091;80;21329;-77
2021/01/22 06:10:39;;;;;;;4.43;1.16;;;;;;;8.65;79.71;96831.53;2004150;80;20307;-77
2021/01/22 06:13:45;;;;;;;2.45;0.40;;;;;;;8.66;79.85;96837.56;2004290;80;20364;-77
2021/01/22 06:16:50;;;;;;;3.47;0.64;;;;;;;8.65;80.10;96841.88;2002888;78;49806;-77
2021/01/22 06:19:53;;;;;;;2.06;0.60;;;;;;;8.61;80.37;96831.69;2004897;80;20331;-76
2021/01/22 06:23:12;;;;;;;3.04;0.66;;;;;;;8.61;80.33;96834.28;2004456;80;20450;-77
2021/01/22 06:26:15;;;;;;;3.06;0.50;;;;;;;8.57;80.39;96849.06;2004832;80;20918;-76
2021/01/22 06:29:19;;;;;;;4.10;0.64;;;;;;;8.58;80.72;96855.09;2004427;80;20327;-76
2021/01/22 06:32:21;;;;;;;4.32;0.64;;;;;;;8.56;81.23;96856.88;2002599;80;28526;-75
2021/01/22 06:35:25;;;;;;;1.77;0.47;;;;;;;8.54;81.75;96858.69;2008354;80;20377;-75
2021/01/22 06:38:29;;;;;;;2.14;0.74;;;;;;;8.52;82.12;96868.25;2009287;80;20339;-77
2021/01/22 06:41:31;;;;;;;2.39;0.24;;;;;;;8.41;82.73;96877.22;2011292;80;21000;-76
2021/01/22 06:44:33;;;;;;;2.30;0.25;;;;;;;8.34;82.62;96870.59;2010242;80;20358;-78
2021/01/22 06:47:35;;;;;;;1.36;0.39;;;;;;;8.20;82.50;96872.81;2009403;80;23243;-76
2021/01/22 06:50:38;;;;;;;2.06;0.50;;;;;;;8.04;82.71;96867.31;2010956;80;20330;-76
2021/01/22 06:54:03;;;;;;;3.14;0.38;;;;;;;7.90;83.20;96898.00;2010188;80;20444;-76
2021/01/22 06:57:04;;;;;;;0.19;0.10;;;;;;;7.79;83.64;96908.66;2010737;80;20383;-76
2021/01/22 07:00:35;;;;;;;1.58;0.17;;;;;;;7.54;83.09;96887.97;2010390;80;20329;-75
2021/01/22 07:03:38;;;;;;;0.45;0.20;;;;;;;7.51;83.58;96888.06;2010554;80;20441;-75
2021/01/22 07:06:48;;;;;;;0.69;0.20;;;;;;;7.48;83.71;96908.81;2010637;80;20346;-78
2021/01/22 07:09:50;;;;;;;0.31;0.17;;;;;;;7.35;83.54;96919.56;2010836;80;20235;-77
2021/01/22 07:12:52;;;;;;;0.49;0.10;;;;;;;7.21;84.11;96920.03;2011561;80;20326;-73
2021/01/22 07:16:01;;;;;;;0.70;0.11;;;;;;;7.20;84.64;96916.59;2008994;78;23327;-74
2021/01/22 07:19:04;;;;;;;0.22;0.20;;;;;;;7.14;84.27;96932.25;2010437;80;20361;-76
2021/01/22 07:22:06;;;;;;;0.41;0.20;;;;;;;7.08;84.25;96924.72;2011229;80;20655;-77
2021/01/22 07:25:07;;;;;;;1.69;0.28;;;;;;;7.02;84.46;96936.97;2011070;80;20445;-75
2021/01/22 07:28:12;;;;;;;0.36;0.20;;;;;;;6.94;84.60;96939.75;2010095;80;20854;-75
2021/01/22 07:31:52;;;;;;;0.10;0.10;;;;;;;6.94;84.93;96947.47;2009503;78;21449;-74
2021/01/22 07:34:53;;;;;;;0.54;0.30;;;;;;;6.88;84.93;96948.53;2010463;80;20379;-74
2021/01/22 07:37:55;;;;;;;0.71;0.40;;;;;;;6.87;85.26;96927.94;2010528;80;20377;-77
2021/01/22 07:40:57;;;;;;;0.76;0.40;;;;;;;6.82;84.88;96942.66;2010708;80;20330;-74
2021/01/22 07:44:00;;;;;;;2.55;0.59;;;;;;;6.70;84.45;96946.47;2010985;80;21339;-74
2021/01/22 07:47:03;;;;;;;0.70;0.50;;;;;;;6.64;84.74;96949.19;2010183;77;20326;-72
2021/01/22 07:50:14;;;;;;;0.36;0.30;;;;;;;6.61;85.11;96955.28;2011287;80;20440;-73
2021/01/22 07:53:16;;;;;;;0.47;0.40;;;;;;;6.67;85.31;96946.56;2014824;80;20358;-74
2021/01/22 07:56:17;;;;;;;0.77;0.49;;;;;;;6.68;85.33;96962.88;2010883;80;20321;-73
2021/01/22 07:59:19;;;;;;;0.46;0.40;;;;;;;6.63;85.10;96974.13;2010940;80;20353;-73
2021/01/22 08:02:22;;;;;;;1.92;0.50;;;;;;;6.59;85.20;96979.44;2010426;78;22545;-72
2021/01/22 08:05:31;;;;;;;2.03;0.51;;;;;;;6.55;85.27;96973.50;2010341;80;21360;-71
2021/01/22 08:08:33;;;;;;;0.46;0.46;;;;;;;6.53;85.12;96979.59;2009914;80;20622;-72
2021/01/22 08:11:36;;;;;;;0.45;0.45;;;;;;;6.37;84.31;96979.16;2009972;80;20272;-72
2021/01/22 08:14:38;;;;;;;1.06;0.46;;;;;;;6.27;84.30;96990.59;2009456;80;20325;-73
2021/01/22 08:17:43;;;;;;;0.95;0.47;;;;;;;6.15;84.27;97011.53;2008332;78;48609;-72
2021/01/22 08:20:51;;;;;;;0.43;0.40;;;;;;;6.00;84.05;97003.31;2009127;80;20365;-72
2021/01/22 08:23:57;;;;;;;0.54;0.20;;;;;;;5.90;84.08;97014.69;2009282;80;20994;-71
2021/01/22 08:27:01;;;;;;;1.20;0.30;;;;;;;5.77;84.09;97023.59;2009562;80;20378;-72
2021/01/22 08:30:08;;;;;;;1.71;0.40;;;;;;;5.66;84.04;97028.97;2009271;80;20349;-72
2021/01/22 08:33:09;;;;;;;2.04;0.20;;;;;;;5.59;84.43;97035.16;2009066;77;20340;-72
2021/01/22 08:36:13;;;;;;;0.76;0.50;;;;;;;5.52;84.59;97043.88;2009146;80;20314;-72
2021/01/22 08:39:14;;;;;;;3.80;0.76;;;;;;;5.41;84.10;97053.56;2010096;80;20371;-72
2021/01/22 08:42:18;;;;;;;1.02;0.40;;;;;;;5.33;83.78;97056.28;2008862;80;20326;-72
2021/01/22 08:45:19;;;;;;;0.47;0.40;;;;;;;5.28;83.50;97075.28;2008384;77;36610;-72
2021/01/22 08:48:28;;;;;;;0.55;0.35;;;;;;;5.15;83.23;97083.25;2009341;80;20940;-72
2021/01/22 08:51:35;;;;;;;;;;;;;;;5.13;83.43;97087.59;2009575;80;20299;-72
2021/01/22 08:54:37;;;;;;;0.54;0.30;;;;;;;5.06;83.41;97092.88;2009019;80;20053;-72
2021/01/22 08:57:58;;;;;;;1.45;0.50;;;;;;;5.05;83.68;97107.47;2009926;80;20330;-73
2021/01/22 09:01:00;;;;;;;0.76;0.30;;;;;;;4.99;83.92;97096.44;2008253;80;20397;-72
2021/01/22 09:04:35;;;;;;;0.57;0.21;;;;;;;4.96;83.92;97094.78;2008988;80;20670;-72
2021/01/22 09:07:39;;;;;;;0.40;0.40;;;;;;;4.85;83.93;97097.56;2009069;80;20802;-72
2021/01/22 09:10:46;;;;;;;0.20;0.20;;;;;;;4.84;84.35;97097.56;2010107;80;20448;-72
2021/01/22 09:13:54;;;;;;;0.20;0.20;;;;;;;4.78;84.01;97116.53;2010059;80;20306;-72
2021/01/22 09:16:56;;;;;;;0.30;0.28;;;;;;;4.75;83.80;97128.59;2009440;77;24993;-72
2021/01/22 09:20:02;;;;;;;0.20;0.20;;;;;;;4.73;84.11;97138.91;2011260;80;20783;-72
2021/01/22 09:23:04;;;;;;;0.66;0.30;;;;;;;4.68;84.12;97139.88;2008939;80;20329;-72
2021/01/22 09:26:06;;;;;;;0.31;0.30;;;;;;;4.72;84.48;97159.50;2008872;80;20317;-72
2021/01/22 09:29:08;;;;;;;0.81;0.30;;;;;;;4.67;84.58;97162.16;2009954;80;21467;-72
2021/01/22 09:32:09;;;;;;;0.47;0.38;;;;;;;4.65;84.75;97173.31;2010279;78;20330;-73
2021/01/22 09:35:12;;;;;;;0.28;0.20;;;;;;;4.65;84.78;97163.88;2010521;80;20326;-72
2021/01/22 09:38:14;;;;;;;1.21;0.30;;;;;;;4.66;84.48;97182.72;2011317;80;20311;-73
2021/01/22 09:41:17;;;;;;;0.60;0.40;;;;;;;4.63;84.51;97199.03;2009935;80;20340;-73
2021/01/22 09:44:19;;;;;;;0.24;0.24;;;;;;;4.59;84.42;97188.84;2010784;80;20370;-72
2021/01/22 09:47:20;;;;;;;0.35;0.35;;;;;;;4.63;84.65;97177.63;2009907;78;21265;-72
2021/01/22 09:50:22;;;;;;;0.20;0.20;;;;;;;4.51;83.74;97179.56;2011520;80;20867;-73
2021/01/22 09:53:24;;;;;;;1.50;0.30;;;;;;;4.45;83.70;97197.63;2010590;80;20365;-74
2021/01/22 09:56:26;;;;;;;0.30;0.30;;;;;;;4.46;84.02;97201.03;2010571;80;20360;-72
2021/01/22 09:59:27;;;;;;;0.34;0.29;;;;;;;4.50;84.53;97208.69;2010832;80;20322;-71
2021/01/22 10:02:29;;;;;;;0.16;0.16;;;;;;;4.55;84.93;97206.88;2009748;78;20736;-72
2021/01/22 10:05:31;;;;;;;0.20;0.20;;;;;;;4.62;84.63;97215.34;2010988;80;20356;-73
2021/01/22 10:08:32;;;;;;;0.20;0.20;;;;;;;4.69;84.71;97219.53;2010257;80;20322;-73
2021/01/22 10:11:34;;;;;;;1.55;0.20;;;;;;;4.69;84.61;97216.97;2009575;80;20387;-73
2021/01/22 10:14:36;;;;;;;0.32;0.20;;;;;;;4.66;84.40;97229.84;2008749;80;20342;-73
2021/01/22 10:17:37;;;;;;;0.31;0.30;;;;;;;4.66;84.27;97222.13;2008288;77;21413;-73
2021/01/22 10:20:39;;;;;;;0.30;0.30;;;;;;;4.61;84.08;97223.94;2010023;80;20440;-73
2021/01/22 10:23:41;;;;;;;0.10;0.10;;;;;;;4.59;84.12;97232.53;2010200;80;20348;-73
2021/01/22 10:26:45;;;;;;;0.20;0.20;;;;;;;4.61;83.81;97231.63;2011250;80;20956;-72
2021/01/22 10:29:47;;;;;;;0.96;0.20;;;;;;;4.73;84.08;97226.31;2011445;80;20326;-78
2021/01/22 10:32:48;;;;;;;1.41;0.20;;;;;;;4.84;84.10;97219.25;2009940;77;20314;-78
2021/01/22 10:35:50;;;;;;;1.10;0.20;;;;;;;4.90;84.13;97226.03;2010598;80;20384;-78
2021/01/22 10:38:52;;;;;;;0.60;0.20;;;;;;;4.94;83.45;97230.25;2011181;80;20330;-78
2021/01/22 10:41:53;;;;;;;0.21;0.20;;;;;;;4.88;82.58;97240.66;2010270;80;20314;-77
2021/01/22 10:44:55;;;;;;;0.26;0.16;;;;;;;4.84;82.52;97247.53;2010549;80;20342;-76
2021/01/22 10:47:56;;;;;;;0.55;0.20;;;;;;;4.77;81.86;97251.09;2009876;77;24284;-75
2021/01/22 10:50:58;;;;;;;0.79;0.20;;;;;;;4.77;82.33;97257.94;2010793;80;20302;-75
2021/01/22 10:54:00;;;;;;;0.19;0.19;;;;;;;4.78;82.55;97259.66;2010121;80;20364;-76
2021/01/22 10:57:02;;;;;;;0.19;0.19;;;;;;;4.83;83.17;97263.84;2010391;80;20322;-76
2021/01/22 11:00:05;;;;;;;0.25;0.20;;;;;;;4.85;82.88;97262.13;2010309;80;20353;-75
2021/01/22 11:03:06;;;;;;;0.10;0.10;;;;;;;4.77;81.64;97266.50;2010390;78;20314;-76
2021/01/22 11:06:08;;;;;;;0.30;0.20;;;;;;;4.70;81.97;97264.94;2010762;80;20295;-74
2021/01/22 11:09:10;;;;;;;0.10;0.10;;;;;;;4.70;81.86;97266.66;2011002;80;20378;-75
2021/01/22 11:12:14;;;;;;;0.19;0.19;;;;;;;4.69;82.09;97264.94;2010162;80;20469;-75
2021/01/22 11:15:16;;;;;;;0.28;0.10;;;;;;;4.70;82.15;97257.22;2008885;78;24388;-75
2021/01/22 11:18:17;;;;;;;0.19;0.19;;;;;;;4.73;82.55;97264.88;2010720;80;20306;-76
2021/01/22 11:21:19;;;;;;;0.14;0.14;;;;;;;4.75;83.02;97262.28;2011039;80;21031;-75
2021/01/22 11:24:21;;;;;;;0.26;0.20;;;;;;;4.70;82.60;97264.06;2009985;80;20342;-75
2021/01/22 11:27:23;;;;;;;0.20;0.20;;;;;;;4.66;82.75;97264.97;2010979;80;20322;-75
2021/01/22 11:30:24;;;;;;;0.75;0.20;;;;;;;4.66;83.04;97260.69;2009010;78;22207;-76
2021/01/22 11:33:26;;;;;;;0.20;0.20;;;;;;;4.66;83.48;97260.69;2010714;80;20334;-76
2021/01/22 11:36:27;;;;;;;0.41;0.30;;;;;;;4.68;83.75;97251.25;2009974;80;20302;-76
2021/01/22 11:39:30;;;;;;;0.20;0.20;;;;;;;4.72;83.34;97247.75;2010760;80;20524;-75
2021/01/22 11:42:32;;;;;;;0.34;0.30;;;;;;;4.70;82.79;97240.94;2010721;80;20729;-76
2021/01/22 11:45:34;;;;;;;0.21;0.20;;;;;;;4.66;82.64;97242.69;2009725;78;23906;-76
2021/01/22 11:48:35;;;;;;;0.63;0.30;;;;;;;4.71;82.92;97245.22;2010375;80;20433;-75
2021/01/22 11:51:37;;;;;;;0.45;0.26;;;;;;;4.74;83.23;97237.44;2010378;80;20715;-76
2021/01/22 11:54:39;;;;;;;0.91;0.39;;;;;;;4.76;83.53;97233.97;2010176;80;20359;-75
2021/01/22 11:57:41;;;;;;;2.01;1.06;;;;;;;4.81;83.71;97228.75;2010497;80;20338;-76
2021/01/22 12:00:42;;;;;;;0.95;0.50;;;;;;;4.86;83.66;97229.53;2010245;78;20409;-76
2021/01/22 12:03:44;;;;;;;0.50;0.47;;;;;;;4.90;83.35;97227.75;2013474;80;20358;-75
2021/01/22 12:06:46;;;;;;;3.66;1.19;;;;;;;4.88;82.97;97237.22;2010556;80;20326;-74
2021/01/22 12:09:47;;;;;;;2.44;1.84;;;;;;;4.87;82.80;97235.53;2010618;80;20681;-75
2021/01/22 12:12:49;;;;;;;3.81;1.56;;;;;;;4.88;82.92;97232.94;2008400;80;20353;-75
2021/01/22 12:15:50;;;;;;;2.53;0.93;;;;;;;4.88;83.07;97234.66;2005986;78;20875;-75
2021/01/22 12:18:52;;;;;;;14.65;8.80;;;;;;;4.86;83.30;97226.97;2007253;80;20989;-75
2021/01/22 12:21:54;;;;;;;8.57;4.49;;;;;;;4.88;83.42;97232.09;2007593;80;20747;-76
2021/01/22 12:24:55;;;;;;;3.22;1.39;;;;;;;4.87;83.62;97236.38;2007051;80;20367;-76
2021/01/22 12:27:57;;;;;;;2.45;1.01;;;;;;;4.85;83.79;97235.56;2008178;80;20358;-75
2021/01/22 12:30:59;;;;;;;0.93;0.60;;;;;;;4.84;83.78;97226.97;2007612;77;20345;-76
2021/01/22 12:34:00;;;;;;;1.55;0.69;;;;;;;4.86;83.33;97229.53;2008517;80;20351;-75
2021/01/22 12:37:02;;;;;;;1.20;0.50;;;;;;;4.76;83.16;97226.25;2008747;80;20460;-75
2021/01/22 12:40:04;;;;;;;0.59;0.40;;;;;;;4.74;83.15;97224.59;2008485;80;20610;-75
2021/01/22 12:43:07;;;;;;;0.56;0.50;;;;;;;4.73;83.26;97215.19;2008804;80;20314;-76
2021/01/22 12:46:09;;;;;;;0.39;0.35;;;;;;;4.69;83.54;97208.41;2009288;78;20696;-77
2021/01/22 12:49:10;;;;;;;0.40;0.40;;;;;;;4.63;83.56;97199.03;2011068;80;20318;-76
2021/01/22 12:52:12;;;;;;;0.29;0.29;;;;;;;4.64;83.85;97194.75;2010587;80;20875;-76
2021/01/22 12:55:14;;;;;;;1.09;0.44;;;;;;;4.65;83.79;97193.88;2010825;80;20941;-77
2021/01/22 12:58:15;;;;;;;0.64;0.64;;;;;;;4.66;84.14;97186.13;2011453;80;20759;-75
2021/01/22 13:01:17;;;;;;;0.50;0.50;;;;;;;4.70;84.39;97186.97;2009546;78;46735;-75
2021/01/22 13:04:19;;;;;;;0.47;0.40;;;;;;;4.73;84.58;97184.34;2011020;80;21029;-76
2021/01/22 13:07:21;;;;;;;1.35;0.34;;;;;;;4.74;84.49;97180.88;2010454;80;20322;-75
2021/01/22 13:10:23;;;;;;;0.93;0.40;;;;;;;4.72;84.03;97180.91;2014089;80;20847;-76
2021/01/22 13:13:26;;;;;;;0.40;0.30;;;;;;;4.78;84.05;97196.22;2011379;80;20357;-76
2021/01/22 13:16:28;;;;;;;1.50;0.20;;;;;;;4.83;83.96;97185.84;2009781;78;21543;-76
2021/01/22 13:19:29;;;;;;;0.82;0.31;;;;;;;4.94;83.62;97190.81;2011291;80;20357;-76
2021/01/22 13:22:31;;;;;;;0.70;0.32;;;;;;;4.99;83.33;97189.00;2010556;80;20355;-76
2021/01/22 13:25:33;;;;;;;0.43;0.31;;;;;;;5.08;83.14;97189.72;2013829;80;20343;-76
2021/01/22 13:28:36;;;;;;;1.08;0.34;;;;;;;5.11;82.93;97188.81;2011426;80;20510;-76
2021/01/22 13:31:37;;;;;;;1.52;0.60;;;;;;;5.16;82.79;97194.69;2010306;77;23817;-76
2021/01/22 13:34:39;;;;;;;0.46;0.40;;;;;;;5.15;82.81;97196.44;2010584;80;20436;-77
2021/01/22 13:37:41;;;;;;;0.71;0.40;;;;;;;5.17;82.67;97196.41;2010981;80;20322;-76
2021/01/22 13:40:43;;;;;;;1.52;0.52;;;;;;;5.10;82.60;97194.81;2012103;80;21361;-77
2021/01/22 13:43:44;;;;;;;1.02;0.64;;;;;;;5.09;82.46;97198.28;2011104;80;20307;-77
2021/01/22 13:46:48;;;;;;;1.31;0.90;;;;;;;5.09;82.51;97196.56;2010218;78;23694;-76
2021/01/22 13:49:50;;;;;;;1.54;0.93;;;;;;;5.07;82.57;97195.72;2010879;80;20460;-77
2021/01/22 13:52:51;;;;;;;0.65;0.65;;;;;;;5.03;81.97;97195.81;2011278;80;20352;-77
2021/01/22 13:55:54;;;;;;;1.69;0.60;;;;;;;5.04;81.99;97202.66;2010567;80;20343;-73
2021/01/22 13:58:56;;;;;;;0.99;0.60;;;;;;;5.06;82.21;97201.75;2010971;80;20583;-73
2021/01/22 14:01:58;;;;;;;0.50;0.40;;;;;;;5.11;82.27;97207.66;2009947;78;22609;-73
2021/01/22 14:05:00;;;;;;;0.63;0.40;;;;;;;5.02;81.62;97207.81;2010033;80;20554;-73
2021/01/22 14:08:02;;;;;;;0.61;0.41;;;;;;;5.06;81.74;97213.75;2010590;80;20310;-74
2021/01/22 14:11:04;;;;;;;0.66;0.49;;;;;;;5.09;82.11;97213.72;2010722;80;20318;-74
2021/01/22 14:14:06;;;;;;;0.79;0.46;;;;;;;5.11;82.37;97211.94;2010217;80;20346;-73
2021/01/22 14:17:07;;;;;;;0.40;0.40;;;;;;;5.18;82.80;97212.69;2009546;78;21055;-73
2021/01/22 14:20:10;;;;;;;1.36;0.70;;;;;;;5.26;83.51;97211.69;2010272;80;20310;-74
2021/01/22 14:23:11;;;;;;;1.08;0.50;;;;;;;5.32;83.71;97211.56;2010548;80;20843;-72
2021/01/22 14:26:14;;;;;;;2.05;0.50;;;;;;;5.33;83.12;97220.13;2010544;80;20318;-73
2021/01/22 14:29:16;;;;;;;1.29;0.73;;;;;;;5.30;82.40;97215.88;2010933;80;20348;-74
2021/01/22 14:32:18;;;;;;;1.04;0.80;;;;;;;5.38;82.74;97214.00;2009457;77;20873;-74